sensor_id;sensor_type;location;lat;lon;timestamp;pressure;altitude;pressure_sealevel;temperature;humidity
71642;BME280;60657;50.122;14.468;2023-04-06T00:02:57;98707.68869128128;;;4.275577935454336;61.03860532539865
71642;BME280;60657;50.122;14.468;2023-04-06T00:06:06;98706.72566402092;;;4.264896620126649;61.2522316319524
71642;BME280;60657;50.122;14.468;2023-04-06T00:09:14;98707.64654177536;;;4.1660944533455435;61.58030060273137
71642;BME280;60657;50.122;14.468;2023-04-06T00:12:23;98700.2882510124;;;4.248874647135118;61.301823453116654
71642;BME280;60657;50.122;14.468;2023-04-06T00:15:31;98701.12450075864;;;4.2835889219501055;61.05195696955825
71642;BME280;60657;50.122;14.468;2023-04-06T00:18:39;98704.38558970059;;;4.243533989471274;61.41054398413061
71642;BME280;60657;50.122;14.468;2023-04-06T00:21:48;98702.54407155265;;;4.214160372320137;61.60128175783932
71642;BME280;60657;50.122;14.468;2023-04-06T00:24:56;98701.7077651203;;;4.1660944533455435;61.85877775234607
71642;BME280;60657;50.122;14.468;2023-04-06T00:28:04;98698.27752328625;;;4.128709849698637;61.90836957351034
71642;BME280;60657;50.122;14.468;2023-04-06T00:31:13;98699.69308426259;;;4.080643930724044;62.032349126420996
71642;BME280;60657;50.122;14.468;2023-04-06T00:34:21;98700.35645581213;;;4.0566109712367435;62.387121385519194
71642;BME280;60657;50.122;14.468;2023-04-06T00:37:29;98692.1227923613;;;3.973830777447162;62.39093614099336
71642;BME280;60657;50.122;14.468;2023-04-06T00:40:38;98685.9194959253;;;3.8349736781872252;62.95742732890821
71642;BME280;60657;50.122;14.468;2023-04-06T00:43:46;98683.45435237642;;;3.8349736781872252;62.83916990920882
71642;BME280;60657;50.122;14.468;2023-04-06T00:46:59;98685.9194959253;;;3.8670176241702876;62.888761730373076
71642;BME280;60657;50.122;14.468;2023-04-06T00:50:07;98689.0886204;;;3.797589074540319;63.125276569771884
71642;BME280;60657;50.122;14.468;2023-04-06T00:53:16;98675.17886845076;;;3.8002594033722445;63.27595941100175
71642;BME280;60657;50.122;14.468;2023-04-06T00:56:25;98678.91845316473;;;3.714808880750745;63.60212100404364
71642;BME280;60657;50.122;14.468;2023-04-06T00:59:33;98675.75080279239;;;3.7708857862211005;63.718471046005945
71642;BME280;60657;50.122;14.468;2023-04-06T01:02:42;98676.40929112364;;;3.7201495384145886;64.0198367284657
71642;BME280;60657;50.122;14.468;2023-04-06T01:05:51;98682.96640323603;;;3.7041275654230574;64.06370641641871
71642;BME280;60657;50.122;14.468;2023-04-06T01:08:59;98677.85796233054;;;3.6079957274738703;64.21629663538567
71642;BME280;60657;50.122;14.468;2023-04-06T01:12:08;98681.76876036174;;;3.5572594796673513;64.43945983062486
71642;BME280;60657;50.122;14.468;2023-04-06T01:15:17;98685.81460765249;;;3.5439078355077456;64.60730907148852
71642;BME280;60657;50.122;14.468;2023-04-06T01:18:26;98692.13944629236;;;3.4184023804074144;65.11848630502784
71642;BME280;60657;50.122;14.468;2023-04-06T01:21:35;98682.93666497472;;;3.4264133669031835;65.3168535896849
71642;BME280;60657;50.122;14.468;2023-04-06T01:24:45;98681.26348464805;;;3.3916990920881958;65.63729304951552
71642;BME280;60657;50.122;14.468;2023-04-06T01:27:54;98681.12395169299;;;3.370336461432821;65.81277180132753
71642;BME280;60657;50.122;14.468;2023-04-06T01:31:03;98681.63216022566;;;3.2047760738536653;66.45746547646296
71642;BME280;60657;50.122;14.468;2023-04-06T01:34:12;98684.09496863959;;;3.2581826504921025;66.63675898374915
71642;BME280;60657;50.122;14.468;2023-04-06T01:37:22;98682.27939371888;;;3.2074464026855907;67.31197070267795
71642;BME280;60657;50.122;14.468;2023-04-06T01:40:31;98686.27237898302;;;3.1406881818875405;67.37491416800184
71642;BME280;60657;50.122;14.468;2023-04-06T01:43:39;98673.86489026464;;;3.172732127870603;67.14602883955139
71642;BME280;60657;50.122;14.468;2023-04-06T01:46:47;98676.23157147672;;;3.0766002899214158;67.39208056763562
71642;BME280;60657;50.122;14.468;2023-04-06T01:50:01;98676.23157147672;;;3.092622262912947;67.40733958953231
71642;BME280;60657;50.122;14.468;2023-04-06T01:53:11;98675.2025368677;;;3.0178530556191348;67.68200198367285
71642;BME280;60657;50.122;14.468;2023-04-06T01:56:19;98682.44280989471;;;2.9671168078126158;67.81933318074312
71642;BME280;60657;50.122;14.468;2023-04-06T01:59:28;98670.4704693487;;;3.0579079880979663;67.79644464789807
71642;BME280;60657;50.122;14.468;2023-04-06T02:02:36;98672.00008401652;;;3.028534370946822;67.67246509498742
71642;BME280;60657;50.122;14.468;2023-04-06T02:05:44;98668.70134958437;;;3.0685893034256537;67.72777904936294
71642;BME280;60657;50.122;14.468;2023-04-06T02:08:53;98668.65332749193;;;3.047226672770279;67.66292820630197
71642;BME280;60657;50.122;14.468;2023-04-06T02:12:02;98679.14421430581;;;2.9297322041657097;67.93377584496834
71642;BME280;60657;50.122;14.468;2023-04-06T02:15:11;98673.97713645395;;;2.8469520103761354;68.277103837644
71642;BME280;60657;50.122;14.468;2023-04-06T02:18:19;98681.90248802576;;;2.7962157625696165;68.52506294346533
71642;BME280;60657;50.122;14.468;2023-04-06T02:21:28;98671.85987193714;;;2.7721828030823232;68.57084000915542
71642;BME280;60657;50.122;14.468;2023-04-06T02:24:36;98678.25578229518;;;2.726787212939648;68.64332036316472
71642;BME280;60657;50.122;14.468;2023-04-06T02:27:45;98675.69481799389;;;2.6867322804608236;68.76920729381247
71642;BME280;60657;50.122;14.468;2023-04-06T02:30:53;98673.23421339087;;;2.6707103074692924;68.98855573357747
71642;BME280;60657;50.122;14.468;2023-04-06T02:34:02;98670.57261067085;;;2.6119630731670114;69.10872053101396
71642;BME280;60657;50.122;14.468;2023-04-06T02:37:10;98673.81942369582;;;2.59594110017548;69.29182879377431
71642;BME280;60657;50.122;14.468;2023-04-06T02:40:19;98668.26294188671;;;2.668039978637367;68.9847409781033
71642;BME280;60657;50.122;14.468;2023-04-06T02:43:27;98669.98676985891;;;2.6653696498054487;68.99427786678874
71642;BME280;60657;50.122;14.468;2023-04-06T02:46:36;98664.42760784143;;;2.713435568780042;68.85885404745555
71642;BME280;60657;50.122;14.468;2023-04-06T02:49:44;98664.91544030943;;;2.601281757839324;69.25368123903257
71642;BME280;60657;50.122;14.468;2023-04-06T02:52:53;98668.69638722518;;;2.521171892881668;69.52834363317311
71642;BME280;60657;50.122;14.468;2023-04-06T02:56:01;98671.94260596173;;;2.5478751812008866;69.53597314412146
71642;BME280;60657;50.122;14.468;2023-04-06T02:59:10;98670.90838838041;;;2.278171969176775;69.98992904554818
71642;BME280;60657;50.122;14.468;2023-04-06T03:02:18;98664.78496490374;;;2.4170290684367117;69.67330434119172
71642;BME280;60657;50.122;14.468;2023-04-06T03:05:27;98672.68754366771;;;2.339589532310981;69.87357900358587
71642;BME280;60657;50.122;14.468;2023-04-06T03:08:35;98671.27409469883;;;2.395666437781337;69.71717402914473
71642;BME280;60657;50.122;14.468;2023-04-06T03:11:43;98685.24500048331;;;2.3636224917982744;69.78774700541695
71642;BME280;60657;50.122;14.468;2023-04-06T03:14:52;98682.52375386204;;;2.278171969176775;69.63515678644998
71642;BME280;60657;50.122;14.468;2023-04-06T03:18:00;98679.43698646664;;;2.3342488746471375;69.7362478065156
71642;BME280;60657;50.122;14.468;2023-04-06T03:21:09;98681.11131056614;;;2.278171969176775;69.93461509117266
71642;BME280;60657;50.122;14.468;2023-04-06T03:24:18;98677.97091008724;;;2.307545586327919;69.79156176089113
71642;BME280;60657;50.122;14.468;2023-04-06T03:27:26;98674.51845493147;;;2.2674906538490873;69.84496833752956
71642;BME280;60657;50.122;14.468;2023-04-06T03:30:35;98676.97771965682;;;2.302204928664075;69.64660105287251
71642;BME280;60657;50.122;14.468;2023-04-06T03:33:43;98674.93630044351;;;2.184710460059513;69.75532158388647
71642;BME280;60657;50.122;14.468;2023-04-06T03:36:52;98669.86044075487;;;2.109941252765701;70.00900282291906
71642;BME280;60657;50.122;14.468;2023-04-06T03:40:00;98682.7241540962;;;1.9977874418249755;70.13298237582971
71642;BME280;60657;50.122;14.468;2023-04-06T03:43:12;98678.72595778128;;;1.8722819867246514;70.82536049439231
71642;BME280;60657;50.122;14.468;2023-04-06T03:46:21;98678.67134425191;;;1.8802929732204134;70.8425268940261
71642;BME280;60657;50.122;14.468;2023-04-06T03:49:29;98690.23130820312;;;1.949721522850382;70.71473258564126
71642;BME280;60657;50.122;14.468;2023-04-06T03:52:38;98685.09667369917;;;1.810864423590445;70.99130235751888
71642;BME280;60657;50.122;14.468;2023-04-06T03:55:47;98700.17735075744;;;1.7200732433051016;71.31937132829786
71642;BME280;60657;50.122;14.468;2023-04-06T03:58:55;98694.59344393984;;;1.7254139009689453;71.25833524071108
71642;BME280;60657;50.122;14.468;2023-04-06T04:02:04;98689.51212493525;;;1.722743572137027;71.24307621881438
71642;BME280;60657;50.122;14.468;2023-04-06T04:05:12;98698.83160202949;;;1.5625238422217151;71.55588616769666
71642;BME280;60657;50.122;14.468;2023-04-06T04:08:21;98701.11696607198;;;1.51712825207904;71.81147478446631
71642;BME280;60657;50.122;14.468;2023-04-06T04:11:29;98704.00873302441;;;1.4183260852979345;72.47905699244679
71642;BME280;60657;50.122;14.468;2023-04-06T04:14:38;98706.2007216943;;;1.58388647287709;72.11665522240024
71642;BME280;60657;50.122;14.468;2023-04-06T04:17:46;98701.11696607198;;;1.5091172655832779;72.36461432822156
71642;BME280;60657;50.122;14.468;2023-04-06T04:20:55;98708.65709907493;;;1.5598535133897897;72.18913557640956
71642;BME280;60657;50.122;14.468;2023-04-06T04:24:04;98709.26607075872;;;1.466392004272528;72.29213397421225
71642;BME280;60657;50.122;14.468;2023-04-06T04:27:13;98702.56343212065;;;1.5117875944151962;72.18341344319829
71642;BME280;60657;50.122;14.468;2023-04-06T04:30:21;98716.11333311223;;;1.4557106889448406;72.00793469138628
71642;BME280;60657;50.122;14.468;2023-04-06T04:33:30;98722.58374105918;;;1.4476997024490714;71.9468986037995
71642;BME280;60657;50.122;14.468;2023-04-06T04:36:38;98719.63966136548;;;1.5651941710536335;71.61692225528344
71642;BME280;60657;50.122;14.468;2023-04-06T04:39:47;98728.6992667472;;;1.3515678644998843;71.98695353627832
71642;BME280;60657;50.122;14.468;2023-04-06T04:42:55;98726.8446571018;;;1.298161287861447;72.3436331731136
71642;BME280;60657;50.122;14.468;2023-04-06T04:46:06;98720.30326757304;;;1.429007400625622;72.23682001983673
71642;BME280;60657;50.122;14.468;2023-04-06T04:49:15;98730.4939848146;;;1.3035019455252908;72.32455939574274
71642;BME280;60657;50.122;14.468;2023-04-06T04:52:23;98727.96159505814;;;1.4690623331044463;72.09948882276646
71642;BME280;60657;50.122;14.468;2023-04-06T04:55:32;98731.05146687932;;;1.613260090028227;71.69321736476692
71642;BME280;60657;50.122;14.468;2023-04-06T04:58:41;98719.27665812081;;;1.7467765316243202;70.89784084840161
71642;BME280;60657;50.122;14.468;2023-04-06T05:01:49;98716.87550107026;;;1.8055237659266012;70.73189898527504
71642;BME280;60657;50.122;14.468;2023-04-06T05:04:58;98724.58289293111;;;1.8669413290608077;70.06431677729458
71642;BME280;60657;50.122;14.468;2023-04-06T05:08:06;98728.77178493325;;;1.8829633020523389;69.88120851453422
71642;BME280;60657;50.122;14.468;2023-04-06T05:11:15;98731.56227754154;;;1.9336995498588507;69.55695429922942
71642;BME280;60657;50.122;14.468;2023-04-06T05:14:23;98720.16450112317;;;2.0485236896314944;69.43106736858168
71642;BME280;60657;50.122;14.468;2023-04-06T05:17:33;98730.16190289163;;;2.0645456626230256;69.55313954375525
71642;BME280;60657;50.122;14.468;2023-04-06T05:20:42;98732.00139532388;;;2.1019302662699317;69.43488212405585
71642;BME280;60657;50.122;14.468;2023-04-06T05:23:51;98736.92693694732;;;1.9604028381780694;70.3256275272755
71642;BME280;60657;50.122;14.468;2023-04-06T05:26:59;98734.02034704965;;;2.000457770656901;70.16922255283437
71642;BME280;60657;50.122;14.468;2023-04-06T05:30:08;98736.86374988305;;;2.1580071717402944;70.05477988860915
71642;BME280;60657;50.122;14.468;2023-04-06T05:33:17;98736.62350598029;;;2.310215915159837;69.70954451819638
71642;BME280;60657;50.122;14.468;2023-04-06T05:36:26;98734.94820058689;;;2.3342488746471375;69.87930113679712
71642;BME280;60657;50.122;14.468;2023-04-06T05:39:34;98736.51560652122;;;2.360952162966356;69.58747234302281
71642;BME280;60657;50.122;14.468;2023-04-06T05:42:43;98737.26401884176;;;2.4731059739070744;69.15449759670405
71642;BME280;60657;50.122;14.468;2023-04-06T05:45:51;98735.48402169844;;;2.6867322804608236;68.64904249637598
71642;BME280;60657;50.122;14.468;2023-04-06T05:49:00;98732.60722994404;;;2.6039520866712422;68.70244907301442
71642;BME280;60657;50.122;14.468;2023-04-06T05:52:09;98742.33838662576;;;2.713435568780042;67.96238651102465
71642;BME280;60657;50.122;14.468;2023-04-06T05:55:17;98741.19071689663;;;2.8469520103761354;68.37056534676127
71642;BME280;60657;50.122;14.468;2023-04-06T05:58:26;98738.31243232143;;;2.836270695048448;68.89509422446021
71642;BME280;60657;50.122;14.468;2023-04-06T06:01:39;98737.46789188973;;;3.0605783169298846;68.54413672083619
71642;BME280;60657;50.122;14.468;2023-04-06T06:04:47;98740.53863848058;;;3.2955672541390086;67.81170366979477
71642;BME280;60657;50.122;14.468;2023-04-06T06:07:56;98733.65106340013;;;3.4851606012054646;66.8923476005188
71642;BME280;60657;50.122;14.468;2023-04-06T06:11:05;98734.66876215178;;;3.7201495384145886;66.44602121004044
71642;BME280;60657;50.122;14.468;2023-04-06T06:14:13;98737.13977710718;;;4.112687876707106;65.43892576485847
71642;BME280;60657;50.122;14.468;2023-04-06T06:17:22;98733.0265715442;;;4.318303196765086;64.55771725032426
71642;BME280;60657;50.122;14.468;2023-04-06T06:20:30;98729.76884168983;;;4.232852674143587;64.50431067368582
71642;BME280;60657;50.122;14.468;2023-04-06T06:23:39;98732.18986955356;;;4.232852674143587;64.11139085984588
71642;BME280;60657;50.122;14.468;2023-04-06T06:26:48;98734.26105447471;;;4.47585259784848;63.08903639276723
71642;BME280;60657;50.122;14.468;2023-04-06T06:29:56;98735.78818750288;;;4.772259098191803;62.068589303425654
71642;BME280;60657;50.122;14.468;2023-04-06T06:33:05;98733.65799142116;;;4.785610742351416;62.23262378881513
71642;BME280;60657;50.122;14.468;2023-04-06T06:36:13;98738.08907126947;;;4.921797512779428;61.33234149691005
71642;BME280;60657;50.122;14.468;2023-04-06T06:39:22;98740.21027340958;;;5.132753490501258;60.42061493858243
71642;BME280;60657;50.122;14.468;2023-04-06T06:42:31;98735.51266281905;;;5.122072175173571;60.47402151522087
71642;BME280;60657;50.122;14.468;2023-04-06T06:45:39;98728.04349760557;;;5.437170977340351;60.01243610284581
71642;BME280;60657;50.122;14.468;2023-04-06T06:48:48;98727.2208274821;;;5.805676356145568;59.444037537193864
71642;BME280;60657;50.122;14.468;2023-04-06T06:51:56;98734.19537859652;;;5.413138017853058;60.00480659189746
71642;BME280;60657;50.122;14.468;2023-04-06T06:55:05;98733.32222873303;;;5.554665445944913;60.50835431448844
71642;BME280;60657;50.122;14.468;2023-04-06T06:58:15;98737.69391082929;;;5.271610589761195;60.61516746776532
71642;BME280;60657;50.122;14.468;2023-04-06T07:01:26;98730.15359532821;;;5.955214770733193;58.60288395513848
71642;BME280;60657;50.122;14.468;2023-04-06T07:04:37;98723.87108079279;;;6.462577248798354;58.21568627450981
71642;BME280;60657;50.122;14.468;2023-04-06T07:07:46;98721.27284276948;;;6.692225528343634;56.71076523994812
71642;BME280;60657;50.122;14.468;2023-04-06T07:10:54;98731.58939377764;;;6.876478217746239;55.80857557030594
71642;BME280;60657;50.122;14.468;2023-04-06T07:14:03;98725.30770452955;;;7.031357289997715;55.77996490424964
71642;BME280;60657;50.122;14.468;2023-04-06T07:17:17;98724.961894247;;;7.274357213702601;54.63935301747158
71642;BME280;60657;50.122;14.468;2023-04-06T07:20:31;98712.14461636601;;;7.431906614785994;53.90691996643015
71642;BME280;60657;50.122;14.468;2023-04-06T07:23:40;98714.81965774392;;;7.661554894331275;53.285114824139775
71642;BME280;60657;50.122;14.468;2023-04-06T07:26:49;98709.35517793176;;;7.805752651255055;52.8235294117647
71642;BME280;60657;50.122;14.468;2023-04-06T07:29:57;98716.4645026178;;;7.568093385214006;53.72571908140688
71642;BME280;60657;50.122;14.468;2023-04-06T07:33:06;98715.19577404096;;;7.901884489204242;52.93415732051575
71642;BME280;60657;50.122;14.468;2023-04-06T07:36:14;98712.17018061844;;;8.091477836270698;51.85076676585031
71642;BME280;60657;50.122;14.468;2023-04-06T07:39:23;98704.63149936657;;;8.713664454108489;50.19897764553292
71642;BME280;60657;50.122;14.468;2023-04-06T07:42:33;98705.46536761968;;;8.759060044251164;49.98535133897917
71642;BME280;60657;50.122;14.468;2023-04-06T07:45:42;98702.56424768663;;;9.020752269779507;49.334935530632485
71642;BME280;60657;50.122;14.468;2023-04-06T07:48:50;98702.46482611925;;;8.919279774166476;49.59433890287632
71642;BME280;60657;50.122;14.468;2023-04-06T07:51:59;98704.55515411649;;;9.501411459525443;49.037384603646906
71642;BME280;60657;50.122;14.468;2023-04-06T07:55:08;98693.27607532495;;;9.712367437247273;46.87823300526436
71642;BME280;60657;50.122;14.468;2023-04-06T07:58:17;98701.50833023124;;;9.629587243457692;46.5043869687953
71642;BME280;60657;50.122;14.468;2023-04-06T08:01:26;98711.46938099491;;;9.779125658045317;47.000305180437934
71642;BME280;60657;50.122;14.468;2023-04-06T08:04:35;98703.02938885686;;;9.448004882887005;47.103303578240634
71642;BME280;60657;50.122;14.468;2023-04-06T08:07:45;98698.25064466702;;;9.853894865339129;45.96841382467384
71642;BME280;60657;50.122;14.468;2023-04-06T08:10:53;98696.96343283365;;;10.329213397421228;44.864042114900435
71642;BME280;60657;50.122;14.468;2023-04-06T08:14:02;98695.3611405074;;;10.444037537193864;44.80491340505073
71642;BME280;60657;50.122;14.468;2023-04-06T08:17:11;98693.80254704085;;;10.577553978789958;44.70954451819638
71642;BME280;60657;50.122;14.468;2023-04-06T08:20:20;98700.42507094276;;;10.44670786602579;44.68474860761425
71642;BME280;60657;50.122;14.468;2023-04-06T08:23:29;98692.1598843628;;;10.540169375143051;44.741969939726864
71642;BME280;60657;50.122;14.468;2023-04-06T08:26:37;98691.44156458032;;;10.785839627679863;43.27519645990692
71642;BME280;60657;50.122;14.468;2023-04-06T08:29:49;98683.22149106703;;;11.159685664148931;42.73731593804837
71642;BME280;60657;50.122;14.468;2023-04-06T08:33:00;98675.79157548405;;;11.317235065232317;42.373006790264746
71642;BME280;60657;50.122;14.468;2023-04-06T08:36:10;98674.97120871527;;;11.383993286030368;42.00869764248112
71642;BME280;60657;50.122;14.468;2023-04-06T08:39:20;98671.6534863599;;;11.466773479819942;42.88990615701533
71642;BME280;60657;50.122;14.468;2023-04-06T08:42:30;98668.35197456558;;;11.741817349507897;41.026398107881285
71642;BME280;60657;50.122;14.468;2023-04-06T08:45:41;98666.6579827728;;;12.262531471732665;41.570000762951096
71642;BME280;60657;50.122;14.468;2023-04-06T08:48:50;98659.04417502608;;;12.721828030823225;40.71740291447318
71642;BME280;60657;50.122;14.468;2023-04-06T08:51:59;98663.21571154296;;;12.588311589227132;40.60296025024796
71642;BME280;60657;50.122;14.468;2023-04-06T08:55:09;98671.36153564745;;;13.175783932249942;38.09094377050431
71642;BME280;60657;50.122;14.468;2023-04-06T08:58:20;98668.09470292786;;;13.03959716182193;37.78004119935912
71642;BME280;60657;50.122;14.468;2023-04-06T09:01:31;98664.80954999808;;;12.732509346150913;37.265049210345616
71642;BME280;60657;50.122;14.468;2023-04-06T09:04:47;98676.63287999545;;;11.990157930876627;35.79255359731441
71642;BME280;60657;50.122;14.468;2023-04-06T09:08:00;98680.83360903675;;;11.237125200274662;37.09338521400778
71642;BME280;60657;50.122;14.468;2023-04-06T09:11:10;98681.67009320765;;;11.685740444037535;37.245975432974745
71642;BME280;60657;50.122;14.468;2023-04-06T09:14:32;98665.8466503459;;;11.942092011902034;37.02853437094682
71642;BME280;60657;50.122;14.468;2023-04-06T09:17:43;98659.91094826678;;;12.4628061341268;35.899366750591284
71642;BME280;60657;50.122;14.468;2023-04-06T09:20:56;98656.48669460551;;;12.788586251621268;38.40566109712368
71642;BME280;60657;50.122;14.468;2023-04-06T09:24:06;98657.3049006307;;;12.625696192874038;35.266117341878385
71642;BME280;60657;50.122;14.468;2023-04-06T09:27:16;98643.74416472147;;;13.247882810711836;32.75219348439765
71642;BME280;60657;50.122;14.468;2023-04-06T09:30:25;98645.14618385962;;;13.787289234760053;32.374532692454416
71642;BME280;60657;50.122;14.468;2023-04-06T09:33:34;98632.57325057195;;;13.830014496070802;33.11650263218128
71642;BME280;60657;50.122;14.468;2023-04-06T09:36:46;98633.47504769741;;;13.763256275272752;34.72823682001984
71642;BME280;60657;50.122;14.468;2023-04-06T09:40:01;98643.30421068546;;;13.717860685130084;33.65629053177691
71642;BME280;60657;50.122;14.468;2023-04-06T09:43:11;98633.90186637641;;;14.131761654077977;35.222247653925386
71642;BME280;60657;50.122;14.468;2023-04-06T09:46:20;98626.95880688008;;;14.139772640573739;32.92957961394674
71642;BME280;60657;50.122;14.468;2023-04-06T09:49:31;98636.72453120758;;;13.28793774319066;33.501792935072864
71642;BME280;60657;50.122;14.468;2023-04-06T09:52:42;98641.61643373911;;;12.315938048371102;35.126878767071034
71642;BME280;60657;50.122;14.468;2023-04-06T09:55:56;98656.69442344608;;;11.760509651331347;34.985732814526585
71642;BME280;60657;50.122;14.468;2023-04-06T09:59:12;98659.2053793038;;;11.274509803921568;35.70099946593423
71642;BME280;60657;50.122;14.468;2023-04-06T10:02:30;98659.21100098816;;;11.725795376516366;36.89501792935073
71642;BME280;60657;50.122;14.468;2023-04-06T10:05:50;98634.09120696642;;;12.582970931563288;35.956588082703895
71642;BME280;60657;50.122;14.468;2023-04-06T10:09:04;98631.60370177071;;;12.454795147631039;35.63614862287327
71642;BME280;60657;50.122;14.468;2023-04-06T10:12:15;98638.39080145776;;;11.93675135423819;35.47592889295796
71642;BME280;60657;50.122;14.468;2023-04-06T10:15:25;98630.86577205214;;;12.187762264438852;36.322804608224615
71642;BME280;60657;50.122;14.468;2023-04-06T10:18:35;98626.19691400642;;;13.357366292820629;34.362020294499125
71642;BME280;60657;50.122;14.468;2023-04-06T10:21:53;98614.27240218032;;;13.562981612878616;34.026321812771805
71642;BME280;60657;50.122;14.468;2023-04-06T10:25:07;98624.91007262236;;;13.872739757381552;33.456015869382774
71642;BME280;60657;50.122;14.468;2023-04-06T10:28:18;98618.53012817577;;;13.27191577019913;34.46120393682765
71642;BME280;60657;50.122;14.468;2023-04-06T10:31:30;98622.24345317959;;;12.77790493629358;34.7186999313344
71642;BME280;60657;50.122;14.468;2023-04-06T10:34:50;98624.24427472887;;;11.752498664835585;35.98710612649729
71642;BME280;60657;50.122;14.468;2023-04-06T10:38:00;98623.45253675297;;;11.538872358281836;35.39391165026322
71642;BME280;60657;50.122;14.468;2023-04-06T10:41:11;98626.75093156773;;;10.873960479133288;34.83314259555962
71642;BME280;60657;50.122;14.468;2023-04-06T10:44:21;98630.85971912647;;;10.727092393377582;34.798809796292055
71642;BME280;60657;50.122;14.468;2023-04-06T10:47:38;98608.42262821928;;;12.139696345464259;35.67811093308919
71642;BME280;60657;50.122;14.468;2023-04-06T10:50:48;98586.15354815329;;;13.488212405584804;32.89715419241627
71642;BME280;60657;50.122;14.468;2023-04-06T10:53:59;98591.0025475005;;;14.516289005874725;30.421377889677274
71642;BME280;60657;50.122;14.468;2023-04-06T10:57:12;98578.72327289837;;;15.06637674525063;29.795757991912716
71642;BME280;60657;50.122;14.468;2023-04-06T11:00:21;98577.0247712665;;;14.991607537956817;28.75432974746319
71642;BME280;60657;50.122;14.468;2023-04-06T11:03:30;98571.90696865755;;;14.740596627756162;29.67940794995041
71642;BME280;60657;50.122;14.468;2023-04-06T11:06:39;98583.78260821517;;;13.958190280003052;31.504768444342716
71642;BME280;60657;50.122;14.468;2023-04-06T11:09:49;98585.59470926545;;;13.789959563591971;31.205310139620053
71642;BME280;60657;50.122;14.468;2023-04-06T11:12:58;98568.15960657429;;;14.660486762798506;30.068513008316167
71642;BME280;60657;50.122;14.468;2023-04-06T11:16:07;98561.91522874858;;;15.579079880979627;27.630884260318915
71642;BME280;60657;50.122;14.468;2023-04-06T11:19:24;98549.45062750623;;;15.98496986343175;28.43579766536965
71642;BME280;60657;50.122;14.468;2023-04-06T11:22:33;98567.67840027035;;;14.788662546730755;28.71808957045853
71642;BME280;60657;50.122;14.468;2023-04-06T11:25:49;98558.23040025787;;;15.309376668955522;27.18646524757763
71642;BME280;60657;50.122;14.468;2023-04-06T11:28:59;98565.55876829485;;;15.031662470435649;28.321355001144426